createdAt,value
2019-01-16T00:01:18.264Z,6.30
2019-01-16T00:04:24.105Z,6.40
2019-01-16T00:07:09.484Z,6.40
2019-01-16T00:10:00.525Z,6.40
2019-01-16T00:12:56.284Z,6.40
2019-01-16T00:15:38.999Z,6.30
2019-01-16T00:18:24.953Z,6.20
2019-01-16T00:21:18.634Z,6.30
2019-01-16T00:24:07.769Z,6.50
2019-01-16T00:26:57.148Z,6.50
2019-01-16T00:29:46.599Z,6.60
2019-01-16T00:32:36.514Z,6.50
2019-01-16T00:35:21.014Z,6.60
2019-01-16T00:38:07.555Z,6.60
2019-01-16T00:41:05.394Z,6.50
2019-01-16T00:43:55.694Z,6.40
2019-01-16T00:46:49.027Z,6.40
2019-01-16T00:49:39.900Z,6.40
2019-01-16T00:52:38.354Z,6.30
2019-01-16T00:55:30.283Z,6.30
2019-01-16T00:58:24.513Z,6.30
2019-01-16T01:01:20.990Z,6.30
2019-01-16T01:04:20.744Z,6.30
2019-01-16T01:07:11.538Z,6.10
2019-01-16T01:10:14.444Z,6.10
2019-01-16T01:13:10.579Z,6.10
2019-01-16T01:16:00.169Z,6.30
2019-01-16T01:18:54.109Z,6.40
2019-01-16T01:21:50.968Z,6.40
2019-01-16T01:24:34.334Z,6.50
2019-01-16T01:27:31.017Z,6.40
2019-01-16T01:30:21.458Z,6.40
2019-01-16T01:33:12.488Z,6.30
2019-01-16T01:35:58.654Z,6.30
2019-01-16T01:39:02.226Z,6.30
2019-01-16T01:41:59.974Z,6.40
2019-01-16T01:44:49.846Z,6.40
2019-01-16T01:47:40.324Z,6.40
2019-01-16T01:50:31.644Z,6.40
2019-01-16T01:53:24.233Z,6.40
2019-01-16T01:56:16.104Z,6.30
2019-01-16T01:59:15.884Z,6.20
2019-01-16T02:01:58.416Z,6.20
2019-01-16T02:04:47.744Z,6.20
2019-01-16T02:07:50.961Z,6.00
2019-01-16T02:10:44.544Z,6.20
2019-01-16T02:13:44.054Z,6.20
2019-01-16T02:16:38.669Z,6.10
2019-01-16T02:19:28.203Z,6.10
2019-01-16T02:22:25.544Z,6.10
2019-01-16T02:25:16.663Z,6.10
2019-01-16T02:28:16.998Z,6.20
2019-01-16T02:31:06.428Z,6.00
2019-01-16T02:33:56.349Z,6.00
2019-01-16T02:36:49.955Z,6.00
2019-01-16T02:39:39.970Z,5.90
2019-01-16T02:42:31.223Z,5.90
2019-01-16T02:45:16.234Z,5.70
2019-01-16T02:48:10.504Z,5.70
2019-01-16T02:50:55.700Z,5.70
2019-01-16T02:53:56.363Z,5.70
2019-01-16T02:56:56.711Z,5.60
2019-01-16T02:59:42.104Z,5.50
2019-01-16T03:02:32.293Z,5.50
2019-01-16T03:05:32.240Z,5.50
2019-01-16T03:08:22.509Z,5.50
2019-01-16T03:11:11.918Z,5.50
2019-01-16T03:14:17.983Z,5.60
2019-01-16T03:17:01.925Z,5.70
2019-01-16T03:19:55.843Z,5.60
2019-01-16T03:22:50.583Z,5.60
2019-01-16T03:25:38.753Z,5.50
2019-01-16T03:28:24.274Z,5.50
2019-01-16T03:31:21.145Z,5.50
2019-01-16T03:34:17.930Z,5.50
2019-01-16T03:37:06.713Z,5.60
2019-01-16T03:39:57.894Z,5.50
2019-01-16T03:42:38.519Z,5.60
2019-01-16T03:45:21.423Z,5.70
2019-01-16T03:48:07.246Z,5.70
2019-01-16T03:50:57.930Z,5.50
2019-01-16T03:53:50.183Z,5.60
2019-01-16T03:56:41.319Z,5.70
2019-01-16T03:59:28.565Z,5.90
2019-01-16T04:02:13.444Z,6.00
2019-01-16T04:05:07.509Z,5.90
2019-01-16T04:08:00.844Z,5.90
2019-01-16T04:10:42.264Z,5.90
2019-01-16T04:13:46.359Z,6.00
2019-01-16T04:16:29.894Z,5.90
2019-01-16T04:19:36.155Z,6.00
2019-01-16T04:22:39.563Z,6.00
2019-01-16T04:25:46.204Z,6.00
2019-01-16T04:28:27.305Z,6.20
2019-01-16T04:31:18.564Z,6.00
2019-01-16T04:34:24.666Z,5.90
2019-01-16T04:37:25.104Z,5.80
2019-01-16T04:40:28.845Z,5.90
2019-01-16T04:43:19.420Z,5.90
2019-01-16T04:46:10.728Z,5.70
2019-01-16T04:49:13.468Z,5.70
2019-01-16T04:52:09.904Z,5.80
2019-01-16T04:55:17.284Z,5.90
2019-01-16T04:58:11.449Z,6.00
2019-01-16T05:01:11.765Z,6.10
2019-01-16T05:03:57.463Z,6.20
2019-01-16T05:06:53.950Z,6.30
2019-01-16T05:09:42.859Z,6.30
2019-01-16T05:12:40.782Z,6.30
2019-01-16T05:15:42.298Z,6.40
2019-01-16T05:18:33.499Z,6.50
2019-01-16T05:21:23.648Z,6.40
2019-01-16T05:24:29.414Z,6.40
2019-01-16T05:27:27.489Z,6.40
2019-01-16T05:30:17.299Z,6.60
2019-01-16T05:33:08.194Z,6.70
2019-01-16T05:36:06.774Z,6.60
2019-01-16T05:39:10.204Z,6.50
2019-01-16T05:42:13.179Z,6.50
2019-01-16T05:45:11.619Z,6.50
2019-01-16T05:48:02.554Z,6.40
2019-01-16T05:50:53.274Z,6.50
2019-01-16T05:53:44.559Z,6.60
2019-01-16T05:56:35.334Z,6.60
2019-01-16T05:59:32.309Z,6.60
2019-01-16T06:02:32.609Z,6.60
2019-01-16T06:05:22.715Z,6.80
2019-01-16T06:08:12.624Z,7.00
2019-01-16T06:11:09.314Z,7.20
2019-01-16T06:14:00.006Z,7.20
2019-01-16T06:17:05.839Z,7.30
2019-01-16T06:19:56.584Z,7.20
2019-01-16T06:22:57.584Z,7.30
2019-01-16T06:25:51.685Z,7.10
2019-01-16T06:28:41.904Z,7.10
2019-01-16T06:31:27.023Z,7.20
2019-01-16T06:34:17.869Z,7.30
2019-01-16T06:37:08.027Z,7.20
2019-01-16T06:39:53.824Z,7.10
2019-01-16T06:42:43.718Z,7.20
2019-01-16T06:45:43.634Z,7.20
2019-01-16T06:48:27.764Z,7.20
2019-01-16T06:51:11.535Z,7.00
2019-01-16T06:54:01.824Z,7.00
2019-01-16T06:56:55.664Z,6.90
2019-01-16T06:59:40.605Z,6.80
2019-01-16T07:02:30.004Z,6.90
2019-01-16T07:05:23.983Z,6.90
2019-01-16T07:08:08.572Z,6.90
2019-01-16T07:10:59.474Z,6.80
2019-01-16T07:14:02.334Z,6.70
2019-01-16T07:16:52.593Z,6.90
2019-01-16T07:19:52.278Z,6.80
2019-01-16T07:22:44.188Z,6.90
2019-01-16T07:25:34.223Z,7.10
2019-01-16T07:28:31.435Z,7.30
2019-01-16T07:31:28.519Z,7.30
2019-01-16T07:34:22.322Z,7.40
2019-01-16T07:37:14.444Z,7.60
2019-01-16T07:39:57.445Z,7.60
2019-01-16T07:42:54.077Z,7.80
2019-01-16T07:45:47.826Z,7.90
2019-01-16T07:48:30.284Z,7.90
2019-01-16T07:51:20.104Z,7.90
2019-01-16T07:54:10.824Z,7.90
2019-01-16T07:56:58.944Z,8.00
2019-01-16T08:00:01.863Z,8.10
2019-01-16T08:02:53.624Z,8.00
2019-01-16T08:05:44.340Z,8.20
2019-01-16T08:08:45.324Z,8.40
2019-01-16T08:11:42.683Z,8.20
2019-01-16T08:14:46.345Z,8.40
2019-01-16T08:17:41.231Z,8.50
2019-01-16T08:20:38.170Z,8.60
2019-01-16T08:23:22.754Z,8.70
2019-01-16T08:26:19.884Z,8.80
2019-01-16T08:29:04.436Z,8.80
2019-01-16T08:31:56.014Z,8.80
2019-01-16T08:34:53.014Z,8.90
2019-01-16T08:38:02.503Z,8.80
2019-01-16T08:40:51.723Z,8.90
2019-01-16T08:43:45.829Z,8.90
2019-01-16T08:46:43.239Z,8.90
2019-01-16T08:49:35.325Z,8.90
2019-01-16T08:52:38.638Z,8.80
2019-01-16T08:55:28.644Z,8.90
2019-01-16T08:58:24.269Z,8.90
2019-01-16T09:01:18.143Z,8.90
2019-01-16T09:04:07.804Z,9.00
2019-01-16T09:07:07.843Z,9.10
2019-01-16T09:10:00.543Z,9.00
2019-01-16T09:12:50.465Z,9.10
2019-01-16T09:15:34.934Z,9.10
2019-01-16T09:18:18.194Z,9.00
2019-01-16T09:21:15.229Z,9.10
2019-01-16T09:24:14.964Z,9.00
2019-01-16T09:27:15.373Z,9.20
2019-01-16T09:30:15.399Z,9.30
2019-01-16T09:32:58.995Z,9.20
2019-01-16T09:35:39.003Z,9.30
2019-01-16T09:38:29.083Z,9.30
2019-01-16T09:41:18.584Z,9.20
2019-01-16T09:44:07.844Z,9.30
2019-01-16T09:47:01.924Z,9.40
2019-01-16T09:49:55.264Z,9.40
2019-01-16T09:52:46.174Z,9.40
2019-01-16T09:55:35.724Z,9.40
2019-01-16T09:58:27.064Z,9.40
2019-01-16T10:01:20.289Z,9.30
2019-01-16T10:04:10.119Z,9.30
2019-01-16T10:07:10.545Z,9.40
2019-01-16T10:10:05.024Z,9.50
2019-01-16T10:13:14.648Z,9.60
2019-01-16T10:16:04.611Z,9.60
2019-01-16T10:18:54.024Z,9.60
2019-01-16T10:21:53.969Z,9.60
2019-01-16T10:24:33.704Z,9.70
2019-01-16T10:27:43.558Z,9.60
2019-01-16T10:30:39.148Z,9.60
2019-01-16T10:33:29.892Z,9.90
2019-01-16T10:36:30.374Z,9.80
2019-01-16T10:39:19.923Z,9.90
2019-01-16T10:42:06.874Z,9.90
2019-01-16T10:44:49.847Z,10.00
2019-01-16T10:47:40.694Z,10.00
2019-01-16T10:50:32.248Z,10.00
2019-01-16T10:53:21.704Z,9.80
2019-01-16T10:56:12.523Z,9.90
2019-01-16T10:59:06.466Z,10.10
2019-01-16T11:02:03.409Z,10.20
2019-01-16T11:05:07.384Z,9.70
2019-01-16T11:07:56.939Z,9.60
2019-01-16T11:10:41.904Z,9.40
2019-01-16T11:13:39.362Z,9.40
2019-01-16T11:16:30.414Z,9.80
2019-01-16T11:19:31.793Z,9.60
2019-01-16T11:22:21.764Z,9.90
2019-01-16T11:25:11.494Z,9.80
2019-01-16T11:28:05.583Z,9.70
2019-01-16T11:31:10.173Z,9.80
2019-01-16T11:34:01.293Z,9.90
2019-01-16T11:36:55.304Z,9.80
2019-01-16T11:39:49.468Z,9.90
2019-01-16T11:42:53.173Z,9.70
2019-01-16T11:45:43.024Z,9.80
2019-01-16T11:48:28.331Z,10.00
2019-01-16T11:51:19.398Z,10.00
2019-01-16T11:54:21.114Z,9.90
2019-01-16T11:57:10.834Z,9.80
2019-01-16T12:00:03.405Z,9.70
2019-01-16T12:03:03.584Z,9.80
2019-01-16T12:06:06.515Z,9.80
2019-01-16T12:12:03.076Z,9.80
2019-01-16T12:14:59.636Z,9.90
2019-01-16T12:18:06.267Z,9.90
2019-01-16T12:21:00.264Z,9.60
2019-01-16T12:23:50.144Z,9.50
2019-01-16T12:26:40.683Z,9.60
2019-01-16T12:29:40.694Z,9.40
2019-01-16T12:32:37.293Z,9.50
2019-01-16T12:35:26.944Z,9.50
2019-01-16T12:38:16.715Z,9.40
2019-01-16T12:41:06.306Z,9.50
2019-01-16T12:43:55.799Z,9.50
2019-01-16T12:46:46.859Z,9.60
2019-01-16T12:49:36.964Z,9.50
2019-01-16T12:52:31.414Z,9.20
2019-01-16T12:55:25.824Z,9.30
2019-01-16T12:58:22.685Z,9.30
2019-01-16T13:01:20.729Z,9.20
2019-01-16T13:04:03.604Z,9.10
2019-01-16T13:06:53.561Z,9.20
2019-01-16T13:09:50.684Z,9.20
2019-01-16T13:12:40.683Z,9.10
2019-01-16T13:15:38.084Z,9.10
2019-01-16T13:18:19.034Z,9.10
2019-01-16T13:21:12.676Z,9.10
2019-01-16T13:24:20.504Z,9.00
2019-01-16T13:27:07.234Z,9.00
2019-01-16T13:30:08.664Z,8.90
2019-01-16T13:33:01.353Z,8.90
2019-01-16T13:35:59.884Z,8.90
2019-01-16T13:38:41.864Z,9.00
2019-01-16T13:41:39.179Z,8.80
2019-01-16T13:44:45.109Z,8.80
2019-01-16T13:47:34.825Z,8.80
2019-01-16T13:50:26.809Z,8.70
2019-01-16T13:53:17.584Z,8.70
2019-01-16T13:56:08.254Z,8.70
2019-01-16T13:58:59.429Z,8.70
2019-01-16T14:01:57.619Z,8.70
2019-01-16T14:04:48.504Z,8.70
2019-01-16T14:07:32.706Z,8.70
2019-01-16T14:10:26.754Z,8.70
2019-01-16T14:13:33.189Z,8.60
2019-01-16T14:16:25.094Z,8.60
2019-01-16T14:19:16.279Z,8.60
2019-01-16T14:22:09.614Z,8.50
2019-01-16T14:25:06.725Z,8.50
2019-01-16T14:28:03.903Z,8.50
2019-01-16T14:31:04.244Z,8.50
2019-01-16T14:33:55.223Z,8.40
2019-01-16T14:36:46.078Z,8.40
2019-01-16T14:39:55.364Z,8.40
2019-01-16T14:42:41.304Z,8.30
2019-01-16T14:45:47.238Z,8.30
2019-01-16T14:48:50.463Z,8.20
2019-01-16T14:51:43.805Z,8.00
2019-01-16T14:54:33.445Z,6.90
2019-01-16T14:57:30.529Z,5.80
2019-01-16T15:00:27.438Z,5.70
2019-01-16T15:03:18.423Z,5.20
2019-01-16T15:06:01.023Z,4.90
2019-01-16T15:08:58.214Z,5.00
2019-01-16T15:11:58.484Z,5.10
2019-01-16T15:14:49.283Z,5.30
2019-01-16T15:17:40.083Z,4.90
2019-01-16T15:20:41.143Z,4.90
2019-01-16T15:23:30.499Z,4.70
2019-01-16T15:26:19.943Z,4.80
2019-01-16T15:29:17.015Z,5.30
2019-01-16T15:32:04.744Z,5.60
2019-01-16T15:35:08.185Z,5.50
2019-01-16T15:37:56.144Z,5.20
2019-01-16T15:40:45.524Z,5.30
2019-01-16T15:43:36.447Z,5.20
2019-01-16T15:46:27.465Z,4.80
2019-01-16T15:49:18.239Z,4.90
2019-01-16T15:52:12.923Z,5.30
2019-01-16T15:55:02.747Z,5.30
2019-01-16T15:57:56.549Z,5.10
2019-01-16T16:00:44.085Z,4.90
2019-01-16T16:03:37.103Z,5.00
2019-01-16T16:06:27.934Z,5.30
2019-01-16T16:09:17.223Z,5.00
2019-01-16T16:12:06.824Z,5.30
2019-01-16T16:14:58.345Z,4.60
2019-01-16T16:17:43.103Z,4.60
2019-01-16T16:20:43.084Z,4.50
2019-01-16T16:23:37.090Z,4.80
2019-01-16T16:26:36.693Z,5.00
2019-01-16T16:29:27.479Z,5.00
2019-01-16T16:32:38.705Z,5.00
2019-01-16T16:35:37.862Z,5.10
2019-01-16T16:38:29.074Z,5.00
2019-01-16T16:41:14.574Z,5.10
2019-01-16T16:44:10.119Z,4.90
2019-01-16T16:47:00.603Z,4.90
2019-01-16T16:49:40.388Z,5.40
2019-01-16T16:52:31.824Z,5.50
2019-01-16T16:55:20.765Z,5.40
2019-01-16T16:58:26.246Z,5.30
2019-01-16T17:01:10.724Z,5.40
2019-01-16T17:03:58.379Z,5.30
2019-01-16T17:06:52.323Z,5.10
2019-01-16T17:09:43.664Z,5.20
2019-01-16T17:12:33.208Z,5.20
2019-01-16T17:15:24.381Z,5.10
2019-01-16T17:18:30.480Z,5.10
2019-01-16T17:21:24.685Z,5.00
2019-01-16T17:24:08.456Z,4.70
2019-01-16T17:27:00.064Z,4.70
2019-01-16T17:29:50.061Z,4.80
2019-01-16T17:32:59.343Z,4.70
2019-01-16T17:35:59.584Z,4.20
2019-01-16T17:38:40.687Z,3.10
2019-01-16T17:41:24.655Z,2.80
2019-01-16T17:44:25.716Z,2.80
2019-01-16T17:47:18.660Z,3.00
2019-01-16T17:50:10.978Z,2.80
2019-01-16T17:53:06.355Z,2.70
2019-01-16T17:55:51.065Z,2.60
2019-01-16T17:58:45.651Z,3.00
2019-01-16T18:01:36.384Z,3.30
2019-01-16T18:04:31.219Z,3.10
2019-01-16T18:07:22.404Z,2.90
2019-01-16T18:10:15.364Z,2.80
2019-01-16T18:13:16.124Z,2.60
2019-01-16T18:16:13.425Z,2.10
2019-01-16T18:19:04.688Z,2.20
2019-01-16T18:22:00.626Z,1.90
2019-01-16T18:24:51.949Z,1.80
2019-01-16T18:27:59.337Z,1.70
2019-01-16T18:30:49.088Z,1.90
2019-01-16T18:33:36.303Z,2.10
2019-01-16T18:36:27.232Z,2.20
2019-01-16T18:39:29.465Z,2.20
2019-01-16T18:42:20.978Z,2.00
2019-01-16T18:45:31.520Z,1.70
2019-01-16T18:48:24.684Z,2.00
2019-01-16T18:51:14.684Z,2.10
2019-01-16T18:54:09.835Z,2.20
2019-01-16T18:57:05.554Z,2.30
2019-01-16T19:00:04.558Z,2.70
2019-01-16T19:02:53.968Z,2.50
2019-01-16T19:06:02.744Z,2.40
2019-01-16T19:08:53.074Z,2.50
2019-01-16T19:11:40.929Z,2.40
2019-01-16T19:14:46.764Z,2.30
2019-01-16T19:17:36.074Z,2.50
2019-01-16T19:20:24.294Z,2.60
2019-01-16T19:23:27.039Z,2.60
2019-01-16T19:26:16.449Z,2.60
2019-01-16T19:29:06.629Z,2.50
2019-01-16T19:31:59.944Z,2.40
2019-01-16T19:34:49.116Z,2.50
2019-01-16T19:37:43.094Z,2.50
2019-01-16T19:40:34.098Z,2.10
2019-01-16T19:43:27.144Z,2.00
2019-01-16T19:46:21.119Z,2.00
2019-01-16T19:49:21.564Z,2.20
2019-01-16T19:52:10.899Z,1.80
2019-01-16T19:55:00.783Z,1.90
2019-01-16T19:57:51.959Z,1.90
2019-01-16T20:00:43.376Z,2.00
2019-01-16T20:03:34.974Z,1.70
2019-01-16T20:06:30.209Z,1.40
2019-01-16T20:09:31.258Z,1.40
2019-01-16T20:12:18.854Z,1.30
2019-01-16T20:15:24.104Z,1.40
2019-01-16T20:18:15.254Z,1.30
2019-01-16T20:21:05.168Z,1.30
2019-01-16T20:24:02.893Z,1.30
2019-01-16T20:26:54.794Z,1.30
2019-01-16T20:30:00.994Z,1.20
2019-01-16T20:32:58.113Z,1.10
2019-01-16T20:35:55.188Z,1.10
2019-01-16T20:38:43.323Z,1.20
2019-01-16T20:41:34.854Z,1.20
2019-01-16T20:44:42.499Z,1.10
2019-01-16T20:47:52.934Z,1.30
2019-01-16T20:50:56.824Z,1.30
2019-01-16T20:53:51.757Z,1.40
2019-01-16T20:56:41.329Z,1.60
2019-01-16T20:59:53.954Z,1.80
2019-01-16T21:02:58.224Z,1.90
2019-01-16T21:06:02.110Z,2.00
2019-01-16T21:08:48.059Z,2.20
2019-01-16T21:11:44.975Z,2.30
2019-01-16T21:14:46.520Z,2.40
2019-01-16T21:17:40.035Z,2.30
2019-01-16T21:20:26.569Z,2.60
2019-01-16T21:23:36.020Z,2.50
2019-01-16T21:26:34.669Z,2.20
2019-01-16T21:29:24.819Z,2.10
2019-01-16T21:32:15.736Z,2.30
2019-01-16T21:35:19.500Z,2.50
2019-01-16T21:38:12.996Z,2.70
2019-01-16T21:41:14.409Z,2.60
2019-01-16T21:44:05.754Z,2.60
2019-01-16T21:47:06.988Z,2.30
2019-01-16T21:49:57.990Z,2.10
2019-01-16T21:52:53.848Z,1.90
2019-01-16T21:55:45.182Z,1.80
2019-01-16T21:58:48.605Z,1.90
2019-01-16T22:01:59.403Z,1.90
2019-01-16T22:05:07.149Z,2.30
2019-01-16T22:07:46.043Z,2.30
2019-01-16T22:10:37.289Z,2.10
2019-01-16T22:13:24.209Z,2.00
2019-01-16T22:16:24.784Z,2.00
2019-01-16T22:19:34.238Z,2.10
2019-01-16T22:22:24.119Z,2.20
2019-01-16T22:25:17.065Z,2.20
2019-01-16T22:28:05.568Z,2.40
2019-01-16T22:30:55.808Z,2.60
2019-01-16T22:34:04.643Z,2.80
2019-01-16T22:36:54.089Z,2.70
2019-01-16T22:39:50.388Z,2.90
2019-01-16T22:42:56.263Z,2.90
2019-01-16T22:45:48.203Z,2.70
2019-01-16T22:48:45.303Z,2.90
2019-01-16T22:51:35.150Z,3.00
2019-01-16T22:54:24.769Z,3.00
2019-01-16T22:57:15.539Z,2.70
2019-01-16T23:00:24.539Z,2.40
2019-01-16T23:03:20.759Z,2.10
2019-01-16T23:06:05.904Z,2.00
2019-01-16T23:08:57.124Z,2.10
2019-01-16T23:11:59.423Z,2.10
2019-01-16T23:14:43.954Z,2.10
2019-01-16T23:17:34.203Z,2.20
2019-01-16T23:20:24.959Z,2.50
2019-01-16T23:23:22.853Z,2.60
2019-01-16T23:26:16.128Z,2.60
2019-01-16T23:29:05.899Z,2.70
2019-01-16T23:32:09.185Z,2.70
2019-01-16T23:35:03.714Z,2.70
2019-01-16T23:37:54.733Z,2.70
2019-01-16T23:40:38.509Z,2.60
2019-01-16T23:43:30.588Z,2.70
2019-01-16T23:46:27.023Z,2.60
2019-01-16T23:49:35.503Z,2.50
2019-01-16T23:52:30.024Z,2.80
2019-01-16T23:55:10.119Z,2.80
2019-01-16T23:57:54.823Z,2.80
